createdAt,value
2019-01-24T00:00:54.978Z,19.60
2019-01-24T00:01:57.549Z,19.00
2019-01-24T00:02:59.972Z,22.80
2019-01-24T00:04:02.697Z,24.00
2019-01-24T00:05:05.320Z,20.20
2019-01-24T00:06:09.061Z,21.00
2019-01-24T00:07:11.448Z,19.60
2019-01-24T00:08:14.146Z,21.80
2019-01-24T00:09:16.766Z,20.00
2019-01-24T00:10:19.341Z,21.80
2019-01-24T00:11:21.726Z,22.20
2019-01-24T00:12:24.278Z,21.20
2019-01-24T00:13:28.652Z,18.40
2019-01-24T00:14:31.120Z,19.00
2019-01-24T00:15:33.654Z,21.00
2019-01-24T00:16:36.432Z,20.80
2019-01-24T00:17:40.204Z,22.20
2019-01-24T00:18:42.907Z,19.00
2019-01-24T00:19:45.856Z,21.00
2019-01-24T00:20:48.278Z,20.00
2019-01-24T00:21:51.298Z,22.60
2019-01-24T00:22:53.715Z,21.80
2019-01-24T00:23:56.123Z,21.20
2019-01-24T00:24:58.880Z,21.20
2019-01-24T00:26:01.271Z,20.60
2019-01-24T00:27:03.870Z,22.00
2019-01-24T00:28:06.249Z,19.00
2019-01-24T00:29:08.662Z,21.00
2019-01-24T00:30:11.148Z,20.20
2019-01-24T00:31:13.514Z,22.40
2019-01-24T00:32:15.908Z,18.00
2019-01-24T00:33:18.344Z,19.40
2019-01-24T00:34:23.325Z,23.20
2019-01-24T00:35:25.182Z,21.20
2019-01-24T00:36:27.628Z,19.20
2019-01-24T00:37:30.089Z,19.80
2019-01-24T00:38:33.727Z,21.20
2019-01-24T00:39:36.361Z,18.80
2019-01-24T00:40:39.084Z,21.60
2019-01-24T00:41:41.671Z,19.00
2019-01-24T00:42:44.000Z,21.60
2019-01-24T00:43:47.441Z,21.40
2019-01-24T00:44:49.833Z,20.00
2019-01-24T00:45:52.347Z,24.40
2019-01-24T00:46:54.703Z,19.00
2019-01-24T00:47:57.233Z,18.20
2019-01-24T00:48:59.573Z,18.40
2019-01-24T00:50:01.986Z,20.40
2019-01-24T00:51:04.991Z,19.60
2019-01-24T00:52:07.573Z,19.20
2019-01-24T00:53:10.053Z,22.00
2019-01-24T00:54:12.743Z,20.00
2019-01-24T00:55:15.395Z,22.00
2019-01-24T00:56:17.809Z,20.80
2019-01-24T00:57:20.544Z,19.60
2019-01-24T00:58:23.072Z,18.00
2019-01-24T00:59:25.596Z,18.80
2019-01-24T01:00:28.129Z,20.60
2019-01-24T01:01:30.572Z,18.40
2019-01-24T01:02:33.375Z,21.20
2019-01-24T01:03:35.810Z,20.80
2019-01-24T01:04:38.157Z,19.80
2019-01-24T01:05:40.612Z,21.60
2019-01-24T01:06:43.188Z,21.00
2019-01-24T01:07:45.534Z,22.80
2019-01-24T01:08:47.960Z,19.00
2019-01-24T01:09:50.466Z,20.60
2019-01-24T01:10:53.246Z,19.40
2019-01-24T01:11:55.702Z,22.00
2019-01-24T01:12:58.202Z,17.40
2019-01-24T01:14:01.852Z,19.00
2019-01-24T01:15:06.168Z,18.00
2019-01-24T01:16:08.940Z,22.60
2019-01-24T01:17:11.350Z,19.00
2019-01-24T01:18:13.716Z,18.80
2019-01-24T01:19:16.123Z,22.60
2019-01-24T01:20:20.317Z,20.20
2019-01-24T01:21:22.863Z,20.20
2019-01-24T01:22:25.319Z,20.00
2019-01-24T01:23:28.022Z,19.80
2019-01-24T01:24:31.892Z,19.60
2019-01-24T01:25:34.293Z,19.00
2019-01-24T01:26:36.952Z,24.20
2019-01-24T01:27:39.475Z,20.80
2019-01-24T01:28:41.976Z,20.20
2019-01-24T01:29:44.522Z,20.20
2019-01-24T01:30:47.077Z,20.80
2019-01-24T01:31:49.542Z,17.00
2019-01-24T01:32:53.300Z,22.00
2019-01-24T01:33:55.755Z,19.40
2019-01-24T01:34:58.231Z,18.80
2019-01-24T01:36:01.077Z,20.00
2019-01-24T01:37:03.841Z,23.80
2019-01-24T01:38:06.330Z,20.20
2019-01-24T01:39:09.231Z,20.60
2019-01-24T01:40:12.183Z,20.00
2019-01-24T01:41:14.770Z,19.60
2019-01-24T01:42:17.167Z,21.80
2019-01-24T01:43:21.971Z,18.60
2019-01-24T01:44:25.658Z,19.00
2019-01-24T01:45:28.565Z,20.00
2019-01-24T01:46:32.119Z,19.40
2019-01-24T01:47:34.632Z,18.40
2019-01-24T01:48:37.351Z,22.00
2019-01-24T01:49:40.545Z,19.40
2019-01-24T01:50:44.293Z,19.20
2019-01-24T01:51:48.231Z,20.40
2019-01-24T01:52:50.620Z,19.00
2019-01-24T01:53:53.035Z,18.00
2019-01-24T01:54:55.690Z,20.80
2019-01-24T01:55:58.209Z,20.40
2019-01-24T01:57:00.782Z,19.00
2019-01-24T01:58:03.094Z,21.00
2019-01-24T01:59:05.907Z,20.80
2019-01-24T02:00:19.618Z,20.40
2019-01-24T02:01:22.310Z,17.60
2019-01-24T02:02:25.224Z,18.60
2019-01-24T02:03:27.922Z,19.20
2019-01-24T02:04:30.647Z,22.40
2019-01-24T02:05:33.131Z,20.00
2019-01-24T02:06:35.734Z,19.20
2019-01-24T02:07:38.280Z,17.80
2019-01-24T02:08:40.987Z,18.00
2019-01-24T02:09:43.626Z,18.40
2019-01-24T02:10:46.314Z,20.40
2019-01-24T02:11:48.796Z,19.60
2019-01-24T02:12:51.505Z,22.00
2019-01-24T02:13:54.102Z,18.40
2019-01-24T02:14:56.714Z,21.60
2019-01-24T02:15:59.326Z,19.40
2019-01-24T02:17:04.077Z,19.00
2019-01-24T02:18:06.474Z,20.60
2019-01-24T02:19:08.992Z,18.20
2019-01-24T02:20:19.215Z,20.20
2019-01-24T02:21:21.816Z,19.40
2019-01-24T02:22:24.645Z,21.40
2019-01-24T02:23:27.424Z,20.20
2019-01-24T02:24:29.771Z,19.00
2019-01-24T02:25:32.358Z,21.00
2019-01-24T02:26:35.867Z,19.60
2019-01-24T02:27:38.314Z,25.00
2019-01-24T02:28:43.156Z,19.40
2019-01-24T02:29:45.845Z,19.40
2019-01-24T02:30:48.177Z,18.00
2019-01-24T02:31:50.687Z,21.00
2019-01-24T02:32:53.284Z,20.40
2019-01-24T02:33:55.978Z,19.60
2019-01-24T02:34:58.498Z,20.20
2019-01-24T02:36:01.015Z,20.00
2019-01-24T02:37:03.460Z,20.20
2019-01-24T02:38:06.336Z,19.00
2019-01-24T02:39:08.835Z,20.80
2019-01-24T02:40:11.552Z,20.40
2019-01-24T02:41:14.071Z,19.40
2019-01-24T02:42:16.978Z,21.00
2019-01-24T02:43:19.623Z,18.00
2019-01-24T02:44:23.627Z,16.60
2019-01-24T02:45:27.407Z,18.40
2019-01-24T02:46:31.860Z,18.80
2019-01-24T02:47:34.387Z,21.00
2019-01-24T02:48:36.785Z,18.40
2019-01-24T02:49:39.318Z,19.00
2019-01-24T02:50:42.088Z,19.80
2019-01-24T02:51:44.600Z,19.00
2019-01-24T02:52:47.146Z,20.60
2019-01-24T02:53:49.730Z,20.20
2019-01-24T02:54:53.184Z,19.20
2019-01-24T02:55:55.939Z,21.00
2019-01-24T02:56:58.595Z,18.00
2019-01-24T02:58:01.029Z,20.00
2019-01-24T02:59:03.406Z,18.40
2019-01-24T03:00:07.254Z,17.20
2019-01-24T03:01:10.210Z,19.00
2019-01-24T03:02:12.929Z,20.20
2019-01-24T03:03:15.396Z,18.20
2019-01-24T03:04:18.208Z,20.20
2019-01-24T03:05:21.211Z,19.00
2019-01-24T03:06:23.662Z,19.60
2019-01-24T03:07:26.014Z,17.20
2019-01-24T03:08:28.586Z,22.00
2019-01-24T03:09:31.238Z,20.00
2019-01-24T03:10:34.288Z,20.20
2019-01-24T03:11:39.374Z,21.20
2019-01-24T03:12:41.767Z,23.80
2019-01-24T03:13:44.542Z,21.00
2019-01-24T03:14:48.842Z,22.80
2019-01-24T03:15:51.347Z,21.40
2019-01-24T03:16:53.869Z,19.60
2019-01-24T03:17:56.200Z,18.20
2019-01-24T03:18:58.753Z,20.80
2019-01-24T03:20:01.129Z,21.20
2019-01-24T03:21:03.840Z,22.00
2019-01-24T03:22:06.346Z,20.20
2019-01-24T03:23:11.048Z,20.00
2019-01-24T03:24:15.313Z,21.80
2019-01-24T03:25:17.907Z,20.80
2019-01-24T03:26:20.251Z,19.00
2019-01-24T03:27:22.693Z,19.20
2019-01-24T03:28:25.197Z,18.80
2019-01-24T03:29:27.593Z,19.40
2019-01-24T03:30:30.028Z,20.60
2019-01-24T03:31:32.437Z,19.80
2019-01-24T03:32:34.947Z,20.20
2019-01-24T03:33:37.400Z,21.60
2019-01-24T03:34:39.712Z,19.60
2019-01-24T03:35:42.294Z,18.00
2019-01-24T03:36:44.645Z,17.60
2019-01-24T03:37:48.940Z,18.60
2019-01-24T03:38:51.729Z,19.40
2019-01-24T03:39:54.263Z,20.20
2019-01-24T03:40:56.689Z,19.20
2019-01-24T03:41:59.136Z,18.80
2019-01-24T03:43:01.544Z,17.20
2019-01-24T03:44:04.338Z,18.60
2019-01-24T03:45:08.712Z,20.00
2019-01-24T03:46:11.550Z,19.40
2019-01-24T03:47:14.546Z,21.00
2019-01-24T03:48:17.024Z,21.00
2019-01-24T03:49:19.686Z,22.00
2019-01-24T03:50:23.305Z,21.40
2019-01-24T03:51:25.723Z,20.20
2019-01-24T03:52:28.134Z,19.80
2019-01-24T03:53:30.497Z,17.20
2019-01-24T03:54:33.090Z,19.20
2019-01-24T03:55:35.764Z,19.80
2019-01-24T03:56:38.227Z,20.00
2019-01-24T03:57:40.770Z,18.80
2019-01-24T03:58:43.488Z,18.00
2019-01-24T03:59:46.119Z,19.80
2019-01-24T04:00:48.592Z,17.60
2019-01-24T04:01:50.976Z,20.20
2019-01-24T04:02:53.742Z,21.60
2019-01-24T04:03:56.266Z,19.60
2019-01-24T04:04:58.676Z,18.00
2019-01-24T04:06:02.399Z,19.00
2019-01-24T04:07:05.080Z,19.00
2019-01-24T04:08:07.539Z,20.40
2019-01-24T04:09:10.241Z,20.00
2019-01-24T04:10:14.816Z,21.00
2019-01-24T04:11:17.367Z,17.80
2019-01-24T04:12:19.885Z,16.20
2019-01-24T04:13:22.317Z,19.80
2019-01-24T04:14:24.679Z,18.20
2019-01-24T04:15:27.599Z,19.00
2019-01-24T04:16:30.013Z,18.00
2019-01-24T04:17:33.528Z,18.40
2019-01-24T04:18:36.009Z,19.60
2019-01-24T04:19:38.751Z,18.00
2019-01-24T04:20:41.201Z,18.80
2019-01-24T04:21:43.801Z,17.00
2019-01-24T04:22:46.209Z,20.00
2019-01-24T04:23:50.441Z,18.00
2019-01-24T04:24:53.357Z,21.00
2019-01-24T04:25:55.807Z,19.40
2019-01-24T04:26:59.390Z,18.40
2019-01-24T04:28:03.532Z,20.80
2019-01-24T04:29:05.968Z,17.60
2019-01-24T04:30:11.255Z,19.60
2019-01-24T04:31:13.623Z,20.00
2019-01-24T04:32:17.102Z,19.20
2019-01-24T04:33:19.521Z,15.80
2019-01-24T04:34:21.941Z,19.20
2019-01-24T04:35:24.487Z,18.00
2019-01-24T04:36:26.810Z,20.40
2019-01-24T04:37:29.324Z,19.00
2019-01-24T04:38:31.653Z,19.60
2019-01-24T04:39:35.204Z,19.00
2019-01-24T04:40:37.895Z,16.80
2019-01-24T04:41:41.906Z,17.20
2019-01-24T04:42:44.216Z,17.40
2019-01-24T04:43:46.760Z,19.40
2019-01-24T04:44:49.190Z,17.40
2019-01-24T04:45:51.795Z,20.80
2019-01-24T04:46:54.387Z,16.20
2019-01-24T04:47:57.206Z,16.80
2019-01-24T04:48:59.615Z,17.60
2019-01-24T04:50:02.137Z,19.00
2019-01-24T04:51:04.600Z,19.60
2019-01-24T04:52:07.067Z,20.40
2019-01-24T04:53:10.344Z,18.00
2019-01-24T04:54:14.142Z,20.20
2019-01-24T04:55:18.088Z,17.40
2019-01-24T04:56:21.490Z,19.20
2019-01-24T04:57:25.346Z,18.00
2019-01-24T04:58:27.758Z,19.40
2019-01-24T04:59:30.167Z,18.00
2019-01-24T05:00:32.816Z,15.80
2019-01-24T05:01:36.587Z,20.00
2019-01-24T05:02:40.314Z,18.00
2019-01-24T05:03:42.734Z,17.80
2019-01-24T05:04:45.355Z,17.20
2019-01-24T05:05:48.150Z,17.60
2019-01-24T05:06:51.557Z,17.00
2019-01-24T05:07:54.021Z,16.60
2019-01-24T05:08:56.511Z,17.40
2019-01-24T05:10:02.438Z,18.40
2019-01-24T05:11:05.001Z,15.60
2019-01-24T05:12:07.517Z,17.00
2019-01-24T05:13:09.978Z,17.80
2019-01-24T05:14:12.505Z,15.80
2019-01-24T05:15:14.910Z,17.20
2019-01-24T05:16:17.676Z,17.00
2019-01-24T05:17:20.093Z,18.00
2019-01-24T05:18:22.563Z,18.80
2019-01-24T05:19:25.021Z,17.40
2019-01-24T05:20:28.743Z,20.20
2019-01-24T05:21:31.406Z,18.20
2019-01-24T05:22:34.188Z,16.80
2019-01-24T05:23:36.594Z,18.80
2019-01-24T05:24:39.009Z,18.60
2019-01-24T05:25:42.101Z,18.80
2019-01-24T05:26:44.751Z,15.20
2019-01-24T05:27:47.167Z,17.20
2019-01-24T05:28:49.595Z,18.40
2019-01-24T05:29:52.381Z,17.80
2019-01-24T05:30:54.834Z,17.60
2019-01-24T05:31:57.345Z,19.60
2019-01-24T05:33:00.323Z,18.00
2019-01-24T05:34:03.179Z,16.60
2019-01-24T05:35:07.239Z,18.60
2019-01-24T05:36:09.975Z,17.60
2019-01-24T05:37:12.413Z,16.40
2019-01-24T05:38:14.867Z,18.40
2019-01-24T05:39:17.267Z,15.80
2019-01-24T05:40:20.167Z,18.00
2019-01-24T05:41:22.639Z,18.20
2019-01-24T05:42:26.189Z,15.80
2019-01-24T05:43:28.936Z,17.00
2019-01-24T05:44:31.291Z,19.00
2019-01-24T05:45:34.862Z,18.00
2019-01-24T05:46:37.262Z,18.40
2019-01-24T05:47:39.666Z,16.20
2019-01-24T05:48:42.267Z,19.20
2019-01-24T05:49:45.760Z,19.20
2019-01-24T05:50:48.418Z,17.80
2019-01-24T05:51:50.826Z,20.40
2019-01-24T05:52:53.496Z,16.80
2019-01-24T05:53:56.064Z,19.00
2019-01-24T05:54:59.560Z,14.40
2019-01-24T05:56:03.726Z,17.00
2019-01-24T05:57:06.637Z,19.40
2019-01-24T05:58:09.164Z,17.80
2019-01-24T05:59:11.717Z,17.00
2019-01-24T06:00:26.532Z,20.60
2019-01-24T06:01:29.192Z,16.80
2019-01-24T06:02:31.542Z,17.40
2019-01-24T06:03:34.953Z,15.20
2019-01-24T06:04:37.318Z,16.00
2019-01-24T06:05:41.938Z,17.20
2019-01-24T06:06:44.210Z,16.80
2019-01-24T06:07:46.640Z,17.80
2019-01-24T06:08:49.007Z,15.20
2019-01-24T06:09:51.842Z,16.40
2019-01-24T06:10:54.232Z,15.60
2019-01-24T06:11:56.653Z,17.80
2019-01-24T06:12:59.087Z,16.60
2019-01-24T06:14:01.662Z,14.60
2019-01-24T06:15:05.975Z,18.20
2019-01-24T06:16:09.279Z,15.40
2019-01-24T06:17:11.880Z,16.80
2019-01-24T06:18:14.305Z,16.40
2019-01-24T06:19:18.413Z,14.60
2019-01-24T06:20:20.886Z,16.60
2019-01-24T06:21:23.322Z,17.40
2019-01-24T06:22:26.321Z,15.80
2019-01-24T06:23:30.178Z,14.40
2019-01-24T06:24:32.624Z,16.00
2019-01-24T06:25:35.020Z,16.40
2019-01-24T06:26:40.511Z,17.20
2019-01-24T06:27:42.967Z,13.40
2019-01-24T06:28:45.602Z,17.60
2019-01-24T06:29:48.055Z,14.00
2019-01-24T06:30:50.459Z,17.40
2019-01-24T06:31:52.853Z,15.40
2019-01-24T06:32:55.389Z,17.40
2019-01-24T06:33:57.822Z,15.20
2019-01-24T06:35:00.611Z,17.00
2019-01-24T06:36:03.071Z,16.80
2019-01-24T06:37:05.820Z,17.40
2019-01-24T06:38:08.749Z,15.00
2019-01-24T06:39:11.349Z,17.80
2019-01-24T06:40:13.821Z,17.00
2019-01-24T06:41:18.811Z,17.20
2019-01-24T06:42:21.662Z,16.60
2019-01-24T06:43:25.805Z,16.20
2019-01-24T06:44:28.649Z,16.00
2019-01-24T06:45:32.100Z,14.60
2019-01-24T06:46:34.975Z,15.40
2019-01-24T06:47:37.531Z,17.20
2019-01-24T06:48:40.472Z,17.60
2019-01-24T06:49:42.976Z,18.00
2019-01-24T06:50:45.400Z,17.00
2019-01-24T06:51:48.254Z,16.60
2019-01-24T06:52:51.071Z,16.60
2019-01-24T06:53:53.587Z,14.20
2019-01-24T06:54:56.108Z,17.20
2019-01-24T06:55:58.704Z,18.40
2019-01-24T06:57:01.230Z,18.80
2019-01-24T06:58:03.674Z,17.40
2019-01-24T06:59:06.064Z,16.20
2019-01-24T07:00:11.471Z,16.60
2019-01-24T07:01:14.156Z,16.20
2019-01-24T07:02:16.595Z,19.40
2019-01-24T07:03:19.111Z,18.60
2019-01-24T07:04:21.480Z,17.20
2019-01-24T07:05:23.978Z,16.20
2019-01-24T07:06:26.397Z,18.00
2019-01-24T07:07:28.783Z,18.60
2019-01-24T07:08:31.124Z,17.40
2019-01-24T07:09:33.786Z,18.60
2019-01-24T07:10:36.144Z,18.60
2019-01-24T07:11:38.935Z,18.40
2019-01-24T07:12:43.211Z,18.20
2019-01-24T07:13:45.624Z,20.00
2019-01-24T07:14:48.516Z,18.40
2019-01-24T07:15:51.417Z,19.60
2019-01-24T07:16:53.854Z,16.60
2019-01-24T07:17:57.829Z,18.40
2019-01-24T07:19:00.243Z,17.80
2019-01-24T07:20:03.840Z,19.80
2019-01-24T07:21:06.154Z,18.00
2019-01-24T07:22:08.587Z,19.80
2019-01-24T07:23:10.961Z,17.40
2019-01-24T07:24:13.481Z,16.00
2019-01-24T07:25:20.991Z,20.20
2019-01-24T07:26:23.447Z,21.20
2019-01-24T07:27:25.887Z,19.20
2019-01-24T07:28:28.303Z,18.80
2019-01-24T07:29:30.687Z,18.00
2019-01-24T07:30:33.105Z,21.00
2019-01-24T07:31:35.631Z,18.00
2019-01-24T07:32:38.043Z,19.00
2019-01-24T07:33:40.644Z,19.40
2019-01-24T07:34:43.422Z,17.60
2019-01-24T07:35:45.877Z,20.80
2019-01-24T07:36:48.405Z,21.00
2019-01-24T07:37:52.035Z,19.20
2019-01-24T07:38:54.480Z,19.00
2019-01-24T07:39:56.995Z,18.00
2019-01-24T07:40:59.560Z,19.00
2019-01-24T07:42:02.395Z,19.00
2019-01-24T07:43:05.053Z,21.40
2019-01-24T07:44:07.798Z,19.00
2019-01-24T07:45:33.827Z,15.40
2019-01-24T07:46:36.409Z,18.80
2019-01-24T07:47:39.153Z,18.80
2019-01-24T07:48:41.790Z,16.80
2019-01-24T07:49:44.369Z,18.00
2019-01-24T07:50:47.263Z,16.60
2019-01-24T07:51:49.921Z,18.20
2019-01-24T07:52:52.384Z,19.40
2019-01-24T07:53:54.776Z,18.20
2019-01-24T07:54:57.464Z,19.00
2019-01-24T07:56:00.065Z,19.60
2019-01-24T07:57:02.600Z,19.00
2019-01-24T07:58:05.543Z,19.00
2019-01-24T07:59:09.745Z,20.80
2019-01-24T08:00:17.606Z,17.80
2019-01-24T08:01:20.317Z,19.40
2019-01-24T08:02:22.865Z,18.80
2019-01-24T08:03:25.292Z,17.80
2019-01-24T08:04:27.698Z,21.60
2019-01-24T08:05:30.332Z,20.20
2019-01-24T08:06:33.182Z,21.60
2019-01-24T08:07:36.532Z,22.00
2019-01-24T08:08:39.244Z,20.00
2019-01-24T08:09:43.132Z,18.80
2019-01-24T08:10:45.971Z,24.00
2019-01-24T08:11:48.389Z,20.00
2019-01-24T08:12:50.888Z,20.60
2019-01-24T08:13:53.432Z,20.20
2019-01-24T08:14:56.940Z,20.60
2019-01-24T08:15:59.310Z,19.40
2019-01-24T08:17:01.863Z,20.20
2019-01-24T08:18:05.058Z,21.60
2019-01-24T08:19:07.804Z,21.00
2019-01-24T08:20:15.499Z,20.20
2019-01-24T08:21:17.981Z,20.40
2019-01-24T08:22:20.432Z,22.00
2019-01-24T08:23:22.988Z,21.00
2019-01-24T08:24:25.622Z,20.20
2019-01-24T08:25:28.349Z,21.00
2019-01-24T08:26:30.811Z,22.60
2019-01-24T08:27:33.598Z,19.60
2019-01-24T08:28:36.061Z,19.00
2019-01-24T08:29:39.515Z,21.00
2019-01-24T08:30:42.670Z,19.00
2019-01-24T08:31:45.123Z,22.40
2019-01-24T08:32:47.907Z,20.00
2019-01-24T08:33:50.476Z,21.00
2019-01-24T08:34:53.111Z,21.80
2019-01-24T08:35:55.569Z,21.40
2019-01-24T08:36:58.245Z,20.00
2019-01-24T08:38:00.617Z,22.60
2019-01-24T08:39:07.653Z,25.00
2019-01-24T08:40:11.383Z,21.80
2019-01-24T08:41:15.121Z,21.80
2019-01-24T08:42:17.961Z,22.80
2019-01-24T08:43:20.557Z,22.60
2019-01-24T08:44:22.951Z,23.80
2019-01-24T08:45:25.473Z,22.80
2019-01-24T08:46:27.881Z,23.40
2019-01-24T08:47:30.262Z,19.60
2019-01-24T08:48:32.701Z,19.60
2019-01-24T08:49:35.207Z,20.40
2019-01-24T08:50:37.598Z,19.40
2019-01-24T08:51:40.352Z,22.80
2019-01-24T08:52:42.898Z,21.60
2019-01-24T08:53:45.512Z,20.60
2019-01-24T08:54:48.284Z,20.00
2019-01-24T08:55:52.204Z,21.20
2019-01-24T08:56:54.566Z,22.20
2019-01-24T08:57:59.651Z,24.80
2019-01-24T08:59:02.286Z,21.00
2019-01-24T09:00:05.964Z,21.40
2019-01-24T09:01:08.518Z,20.80
2019-01-24T09:02:10.944Z,23.00
2019-01-24T09:03:14.826Z,21.40
2019-01-24T09:04:17.440Z,18.00
2019-01-24T09:05:20.242Z,21.80
2019-01-24T09:06:22.987Z,21.40
2019-01-24T09:07:25.999Z,22.20
2019-01-24T09:08:28.776Z,21.20
2019-01-24T09:09:32.768Z,22.20
2019-01-24T09:10:37.141Z,21.40
2019-01-24T09:11:40.087Z,22.20
2019-01-24T09:12:42.962Z,21.00
2019-01-24T09:13:47.357Z,21.20
2019-01-24T09:14:50.272Z,21.00
2019-01-24T09:15:52.702Z,21.00
2019-01-24T09:16:55.443Z,21.60
2019-01-24T09:17:57.927Z,22.00
2019-01-24T09:19:00.494Z,20.80
2019-01-24T09:20:03.632Z,20.80
2019-01-24T09:21:06.082Z,23.40
2019-01-24T09:22:08.671Z,20.00
2019-01-24T09:23:11.113Z,22.60
2019-01-24T09:24:15.158Z,22.60
2019-01-24T09:25:17.893Z,23.60
2019-01-24T09:26:20.681Z,22.00
2019-01-24T09:27:23.080Z,23.40
2019-01-24T09:28:26.587Z,24.00
2019-01-24T09:29:29.047Z,22.00
2019-01-24T09:30:32.478Z,22.60
2019-01-24T09:31:35.208Z,22.00
2019-01-24T09:32:37.679Z,21.00
2019-01-24T09:33:40.697Z,22.80
2019-01-24T09:34:43.382Z,21.00
2019-01-24T09:35:47.333Z,22.40
2019-01-24T09:36:50.165Z,21.20
2019-01-24T09:37:53.191Z,24.00
2019-01-24T09:38:56.721Z,22.00
2019-01-24T09:39:59.215Z,20.60
2019-01-24T09:41:02.720Z,21.60
2019-01-24T09:42:06.599Z,20.00
2019-01-24T09:43:09.067Z,21.80
2019-01-24T09:44:11.490Z,20.20
2019-01-24T09:45:19.269Z,20.60
2019-01-24T09:46:22.909Z,23.40
2019-01-24T09:47:25.307Z,22.80
2019-01-24T09:48:27.730Z,20.20
2019-01-24T09:49:30.381Z,22.80
2019-01-24T09:50:33.348Z,21.40
2019-01-24T09:51:35.806Z,21.20
2019-01-24T09:52:39.705Z,21.60
2019-01-24T09:53:43.876Z,21.20
2019-01-24T09:54:46.525Z,22.20
2019-01-24T09:55:49.226Z,23.00
2019-01-24T09:56:52.941Z,21.20
2019-01-24T09:57:56.216Z,22.60
2019-01-24T09:58:59.230Z,22.60
2019-01-24T10:00:01.675Z,20.20
2019-01-24T10:01:04.355Z,20.60
2019-01-24T10:02:06.692Z,20.60
2019-01-24T10:03:09.365Z,24.60
2019-01-24T10:04:11.826Z,19.80
2019-01-24T10:05:15.462Z,22.00
2019-01-24T10:06:18.096Z,23.60
2019-01-24T10:07:21.770Z,21.20
2019-01-24T10:08:24.474Z,22.20
2019-01-24T10:09:29.228Z,19.80
2019-01-24T10:10:31.637Z,24.40
2019-01-24T10:11:34.005Z,20.00
2019-01-24T10:12:36.438Z,21.80
2019-01-24T10:13:40.257Z,21.40
2019-01-24T10:14:42.732Z,22.20
2019-01-24T10:15:45.174Z,21.00
2019-01-24T10:16:47.736Z,21.80
2019-01-24T10:17:50.314Z,22.60
2019-01-24T10:18:52.872Z,22.80
2019-01-24T10:19:55.241Z,24.20
2019-01-24T10:20:58.777Z,22.40
2019-01-24T10:22:01.458Z,20.00
2019-01-24T10:23:04.277Z,21.60
2019-01-24T10:24:07.313Z,22.00
2019-01-24T10:25:15.619Z,26.20
2019-01-24T10:26:18.423Z,24.00
2019-01-24T10:27:21.012Z,21.60
2019-01-24T10:28:23.429Z,24.20
2019-01-24T10:29:26.182Z,19.00
2019-01-24T10:30:28.648Z,21.60
2019-01-24T10:31:31.184Z,21.00
2019-01-24T10:32:33.781Z,23.60
2019-01-24T10:33:36.983Z,21.20
2019-01-24T10:34:39.888Z,23.00
2019-01-24T10:35:42.837Z,23.20
2019-01-24T10:36:45.349Z,20.00
2019-01-24T10:37:48.010Z,24.40
2019-01-24T10:38:51.119Z,21.40
2019-01-24T10:39:53.575Z,20.80
2019-01-24T10:40:56.358Z,22.40
2019-01-24T10:41:58.951Z,21.60
2019-01-24T10:43:01.448Z,24.60
2019-01-24T10:44:06.473Z,21.20
2019-01-24T10:45:11.001Z,20.40
2019-01-24T10:46:13.637Z,23.00
2019-01-24T10:47:16.610Z,23.00
2019-01-24T10:48:19.049Z,24.20
2019-01-24T10:49:23.141Z,19.40
2019-01-24T10:50:26.935Z,23.60
2019-01-24T10:51:29.389Z,21.80
2019-01-24T10:52:31.771Z,20.80
2019-01-24T10:53:34.201Z,21.00
2019-01-24T10:54:36.753Z,23.20
2019-01-24T10:55:39.600Z,21.80
2019-01-24T10:56:42.240Z,23.60
2019-01-24T10:57:44.635Z,22.20
2019-01-24T10:58:48.065Z,20.60
2019-01-24T10:59:50.557Z,22.40
2019-01-24T11:00:53.055Z,20.80
2019-01-24T11:01:55.557Z,19.00
2019-01-24T11:02:58.332Z,23.40
2019-01-24T11:04:01.922Z,21.40
2019-01-24T11:05:05.084Z,22.00
2019-01-24T11:06:08.890Z,24.40
2019-01-24T11:07:11.332Z,21.20
2019-01-24T11:08:14.136Z,23.80
2019-01-24T11:09:16.751Z,23.40
2019-01-24T11:10:19.680Z,20.60
2019-01-24T11:11:22.215Z,19.80
2019-01-24T11:12:24.630Z,25.20
2019-01-24T11:13:27.350Z,23.00
2019-01-24T11:14:29.772Z,24.00
2019-01-24T11:15:33.703Z,23.00
2019-01-24T11:16:36.092Z,21.80
2019-01-24T11:17:38.540Z,21.40
2019-01-24T11:18:42.050Z,20.00
2019-01-24T11:19:45.823Z,21.00
2019-01-24T11:20:48.366Z,23.00
2019-01-24T11:21:52.590Z,22.60
2019-01-24T11:22:54.939Z,20.60
2019-01-24T11:23:57.498Z,22.00
2019-01-24T11:24:59.886Z,22.80
2019-01-24T11:26:03.568Z,20.80
2019-01-24T11:27:06.055Z,20.40
2019-01-24T11:28:08.629Z,22.20
2019-01-24T11:29:12.225Z,20.80
2019-01-24T11:30:17.847Z,22.60
2019-01-24T11:31:20.322Z,25.20
2019-01-24T11:32:23.245Z,22.40
2019-01-24T11:33:25.888Z,23.20
2019-01-24T11:34:30.294Z,20.60
2019-01-24T11:35:33.772Z,21.20
2019-01-24T11:36:36.154Z,22.20
2019-01-24T11:37:38.721Z,21.40
2019-01-24T11:38:43.030Z,22.60
2019-01-24T11:39:45.433Z,20.80
2019-01-24T11:40:47.902Z,22.80
2019-01-24T11:41:51.269Z,21.60
2019-01-24T11:42:54.140Z,23.60
2019-01-24T11:43:56.724Z,21.20
2019-01-24T11:44:59.441Z,19.40
2019-01-24T11:46:02.299Z,19.60
2019-01-24T11:47:05.213Z,23.80
2019-01-24T11:48:08.364Z,22.60
2019-01-24T11:49:10.781Z,24.00
2019-01-24T11:50:15.255Z,23.00
2019-01-24T11:51:17.783Z,19.80
2019-01-24T11:52:20.346Z,22.60
2019-01-24T11:53:22.796Z,24.20
2019-01-24T11:54:25.171Z,23.20
2019-01-24T11:55:27.793Z,21.20
2019-01-24T11:56:30.322Z,21.40
2019-01-24T11:57:32.865Z,22.00
2019-01-24T11:58:35.381Z,23.40
2019-01-24T11:59:37.774Z,25.00
2019-01-24T12:00:47.978Z,27.60
2019-01-24T12:01:52.071Z,22.60
2019-01-24T12:02:55.710Z,23.80
2019-01-24T12:03:58.310Z,22.60
2019-01-24T12:05:00.712Z,23.20
2019-01-24T12:06:03.891Z,22.20
2019-01-24T12:07:06.399Z,23.60
2019-01-24T12:08:08.939Z,22.00
2019-01-24T12:09:13.207Z,23.40
2019-01-24T12:10:17.770Z,23.00
2019-01-24T12:11:20.466Z,27.00
2019-01-24T12:12:22.855Z,23.20
2019-01-24T12:13:25.231Z,26.00
2019-01-24T12:14:27.921Z,25.60
2019-01-24T12:15:30.386Z,22.00
2019-01-24T12:16:34.350Z,23.00
2019-01-24T12:17:37.795Z,27.00
2019-01-24T12:18:40.322Z,26.00
2019-01-24T12:19:44.371Z,22.40
2019-01-24T12:20:46.996Z,24.60
2019-01-24T12:21:49.994Z,24.80
2019-01-24T12:22:52.481Z,25.00
2019-01-24T12:23:55.112Z,24.00
2019-01-24T12:24:57.797Z,25.80
2019-01-24T12:26:00.133Z,23.20
2019-01-24T12:27:02.889Z,23.60
2019-01-24T12:28:05.631Z,23.60
2019-01-24T12:29:09.636Z,26.00
2019-01-24T12:30:16.490Z,22.00
2019-01-24T12:31:19.187Z,23.80
2019-01-24T12:32:21.654Z,24.00
2019-01-24T12:33:23.972Z,22.80
2019-01-24T12:34:26.391Z,21.40
2019-01-24T12:35:29.171Z,24.00
2019-01-24T12:36:31.602Z,23.80
2019-01-24T12:37:34.046Z,23.40
2019-01-24T12:38:36.688Z,28.00
2019-01-24T12:39:39.182Z,26.40
2019-01-24T12:40:41.763Z,24.00
2019-01-24T12:41:44.738Z,21.20
2019-01-24T12:42:47.265Z,25.00
2019-01-24T12:43:50.963Z,22.00
2019-01-24T12:44:53.542Z,23.20
2019-01-24T12:45:56.024Z,22.00
2019-01-24T12:46:58.944Z,22.60
2019-01-24T12:48:01.457Z,23.60
2019-01-24T12:49:04.150Z,22.40
2019-01-24T12:50:08.300Z,22.00
2019-01-24T12:51:11.339Z,24.80
2019-01-24T12:52:13.921Z,22.60
2019-01-24T12:53:16.277Z,24.00
2019-01-24T12:54:19.049Z,22.60
2019-01-24T12:55:21.649Z,22.00
2019-01-24T12:56:24.913Z,22.40
2019-01-24T12:57:27.535Z,20.20
2019-01-24T12:58:30.215Z,22.00
2019-01-24T12:59:34.461Z,21.80
2019-01-24T13:00:38.083Z,23.00
2019-01-24T13:01:40.484Z,23.00
2019-01-24T13:02:42.977Z,21.60
2019-01-24T13:03:47.345Z,21.00
2019-01-24T13:04:49.834Z,21.80
2019-01-24T13:05:52.217Z,25.80
2019-01-24T13:06:54.595Z,22.20
2019-01-24T13:07:57.025Z,24.40
2019-01-24T13:09:00.688Z,21.00
2019-01-24T13:10:03.952Z,22.40
2019-01-24T13:11:06.578Z,22.20
2019-01-24T13:12:09.337Z,22.40
2019-01-24T13:13:11.983Z,21.60
2019-01-24T13:14:14.331Z,22.20
2019-01-24T13:15:17.474Z,21.40
2019-01-24T13:16:21.052Z,20.80
2019-01-24T13:17:23.697Z,22.00
2019-01-24T13:18:26.108Z,21.40
2019-01-24T13:19:28.487Z,24.20
2019-01-24T13:20:31.015Z,21.40
2019-01-24T13:21:33.880Z,21.40
2019-01-24T13:22:36.389Z,20.40
2019-01-24T13:23:39.068Z,23.60
2019-01-24T13:24:41.629Z,22.20
2019-01-24T13:25:44.498Z,22.00
2019-01-24T13:26:48.818Z,23.00
2019-01-24T13:27:51.168Z,20.40
2019-01-24T13:28:55.452Z,20.60
2019-01-24T13:29:57.818Z,23.00
2019-01-24T13:31:00.322Z,19.00